createdAt,value
2022-11-29T00:00:46.785Z,9.280024
2022-11-29T00:01:46.797Z,9.280014
2022-11-29T00:02:46.825Z,9.279922
2022-11-29T00:03:46.706Z,9.279949
2022-11-29T00:04:46.688Z,9.279925
2022-11-29T00:05:46.690Z,9.279938
2022-11-29T00:06:46.647Z,9.279947
2022-11-29T00:07:46.680Z,9.280021
2022-11-29T00:08:46.608Z,9.280036
2022-11-29T00:09:46.590Z,9.280057
2022-11-29T00:10:46.602Z,9.279943
2022-11-29T00:11:46.564Z,9.280005
2022-11-29T00:12:46.537Z,9.280005
2022-11-29T00:13:46.520Z,9.280024
2022-11-29T00:14:46.875Z,9.279970
2022-11-29T00:15:46.512Z,9.279980
2022-11-29T00:16:46.562Z,9.279971
2022-11-29T00:17:46.449Z,9.279983
2022-11-29T00:18:46.429Z,9.279972
2022-11-29T00:19:46.412Z,9.280019
2022-11-29T00:20:46.421Z,9.279943
2022-11-29T00:21:46.377Z,9.280038
2022-11-29T00:22:46.354Z,9.279975
2022-11-29T00:23:46.336Z,9.279961
2022-11-29T00:24:47.325Z,9.280001
2022-11-29T00:25:46.343Z,9.280046
2022-11-29T00:26:46.288Z,9.280078
2022-11-29T00:27:46.268Z,9.280062
2022-11-29T00:28:46.248Z,9.280011
2022-11-29T00:29:46.230Z,9.280126
2022-11-29T00:30:46.259Z,9.280074
2022-11-29T00:31:46.194Z,9.280023
2022-11-29T00:32:46.173Z,9.280296
2022-11-29T00:33:46.158Z,9.279943
2022-11-29T00:34:46.271Z,9.279926
2022-11-29T00:35:46.156Z,9.279847
2022-11-29T00:36:46.108Z,9.279919
2022-11-29T00:37:46.091Z,9.280101
2022-11-29T00:38:46.076Z,9.280173
2022-11-29T00:39:46.051Z,9.280078
2022-11-29T00:40:46.059Z,9.279940
2022-11-29T00:41:46.022Z,9.280016
2022-11-29T00:42:45.999Z,9.279980
2022-11-29T00:43:45.982Z,9.279902
2022-11-29T00:44:46.141Z,9.279938
2022-11-29T00:45:46.025Z,9.280011
2022-11-29T00:46:45.931Z,9.280060
2022-11-29T00:47:45.912Z,9.280001
2022-11-29T00:48:45.896Z,9.280174
2022-11-29T00:49:45.877Z,9.280207
2022-11-29T00:50:45.887Z,9.280256
2022-11-29T00:51:45.848Z,9.280128
2022-11-29T00:53:22.876Z,9.279999
2022-11-29T00:53:45.810Z,9.279905
2022-11-29T00:54:46.116Z,9.280057
2022-11-29T00:55:45.806Z,9.280093
2022-11-29T00:56:45.751Z,9.280121
2022-11-29T00:57:46.744Z,9.280113
2022-11-29T00:58:45.732Z,9.280106
2022-11-29T00:59:45.705Z,9.280130
2022-11-29T01:00:45.720Z,9.280026
2022-11-29T01:01:45.745Z,9.279973
2022-11-29T01:02:45.681Z,9.279953
2022-11-29T01:03:45.641Z,9.279944
2022-11-29T01:04:45.826Z,9.280002
2022-11-29T01:05:45.640Z,9.279972
2022-11-29T01:06:45.591Z,9.280022
2022-11-29T01:07:45.614Z,9.279984
2022-11-29T01:08:45.551Z,9.279968
2022-11-29T01:09:45.529Z,9.279976
2022-11-29T01:10:46.558Z,9.279945
2022-11-29T01:11:45.500Z,9.279943
2022-11-29T01:12:45.477Z,9.280055
2022-11-29T01:13:45.469Z,9.280084
2022-11-29T01:14:45.689Z,9.280003
2022-11-29T01:15:45.452Z,9.280080
2022-11-29T01:16:45.443Z,9.280049
2022-11-29T01:17:45.390Z,9.280079
2022-11-29T01:18:45.366Z,9.280073
2022-11-29T01:19:50.584Z,9.280081
2022-11-29T01:20:47.358Z,9.280080
2022-11-29T01:21:45.319Z,9.280084
2022-11-29T01:22:45.300Z,9.279996
2022-11-29T01:23:45.279Z,9.279969
2022-11-29T01:24:45.556Z,9.280022
2022-11-29T01:25:45.274Z,9.280077
2022-11-29T01:26:45.223Z,9.279999
2022-11-29T01:27:45.208Z,9.279898
2022-11-29T01:28:45.193Z,9.280072
2022-11-29T01:29:45.173Z,9.279758
2022-11-29T01:30:45.178Z,9.280052
2022-11-29T01:31:45.163Z,9.280021
2022-11-29T01:32:45.116Z,9.279952
2022-11-29T01:33:45.095Z,9.280002
2022-11-29T01:34:45.344Z,9.280063
2022-11-29T01:35:45.069Z,9.280243
2022-11-29T01:36:45.062Z,9.280115
2022-11-29T01:37:45.025Z,9.280012
2022-11-29T01:38:45.003Z,9.279964
2022-11-29T01:39:44.984Z,9.279989
2022-11-29T01:40:44.965Z,9.280060
2022-11-29T01:41:44.975Z,9.280122
2022-11-29T01:42:44.937Z,9.280055
2022-11-29T01:43:44.912Z,9.280093
2022-11-29T01:44:45.213Z,9.280113
2022-11-29T01:45:44.919Z,9.280069
2022-11-29T01:46:44.888Z,9.280050
2022-11-29T01:47:44.850Z,9.279965
2022-11-29T01:48:44.832Z,9.279899
2022-11-29T01:49:44.804Z,9.279986
2022-11-29T01:50:44.786Z,9.280014
2022-11-29T01:51:44.794Z,9.279972
2022-11-29T01:52:44.745Z,9.280050
2022-11-29T01:53:44.737Z,9.280098
2022-11-29T01:54:45.070Z,9.280037
2022-11-29T01:55:44.761Z,9.279987
2022-11-29T01:56:44.699Z,9.279982
2022-11-29T01:57:44.658Z,9.279849
2022-11-29T01:58:44.645Z,9.279973
2022-11-29T01:59:44.622Z,9.279829
2022-11-29T02:00:44.606Z,9.279938
2022-11-29T02:01:44.651Z,9.279836
2022-11-29T02:02:44.594Z,9.279219
2022-11-29T02:03:44.550Z,9.279733
2022-11-29T02:04:44.931Z,9.279924
2022-11-29T02:05:44.514Z,9.279878
2022-11-29T02:06:44.526Z,9.279889
2022-11-29T02:08:24.378Z,9.279858
2022-11-29T02:08:44.480Z,9.279686
2022-11-29T02:10:25.315Z,9.279835
2022-11-29T02:11:25.336Z,9.279818
2022-11-29T02:11:44.436Z,9.279874
2022-11-29T02:13:24.309Z,9.279828
2022-11-29T02:13:59.280Z,9.279843
2022-11-29T02:14:44.808Z,9.279874
2022-11-29T02:15:44.406Z,9.279923
2022-11-29T02:16:44.361Z,9.279914
2022-11-29T02:17:44.315Z,9.279906
2022-11-29T02:18:44.296Z,9.279897
2022-11-29T02:19:44.276Z,9.279955
2022-11-29T02:20:44.265Z,9.279897
2022-11-29T02:21:44.265Z,9.279966
2022-11-29T02:22:44.223Z,9.280056
2022-11-29T02:23:44.211Z,9.279964
2022-11-29T02:24:44.463Z,9.279881
2022-11-29T02:25:44.171Z,9.279887
2022-11-29T02:26:45.071Z,9.279952
2022-11-29T02:27:44.183Z,9.279906
2022-11-29T02:28:44.112Z,9.279867
2022-11-29T02:29:44.093Z,9.279944
2022-11-29T02:30:44.151Z,9.279854
2022-11-29T02:31:44.083Z,9.280016
2022-11-29T02:33:23.948Z,9.279967
2022-11-29T02:33:44.026Z,9.279984
2022-11-29T02:34:44.499Z,9.279885
2022-11-29T02:35:43.991Z,9.279890
2022-11-29T02:36:44.540Z,9.279825
2022-11-29T02:37:43.955Z,9.279883
2022-11-29T02:38:43.935Z,9.279850
2022-11-29T02:39:43.941Z,9.279780
2022-11-29T02:40:43.896Z,9.279969
2022-11-29T02:41:43.904Z,9.279928
2022-11-29T02:42:43.889Z,9.279886
2022-11-29T02:43:43.842Z,9.279894
2022-11-29T02:44:44.158Z,9.279880
2022-11-29T02:45:43.959Z,9.279942
2022-11-29T02:46:43.815Z,9.279923
2022-11-29T02:47:43.792Z,9.279933
2022-11-29T02:48:44.574Z,9.279972
2022-11-29T02:49:43.738Z,9.279943
2022-11-29T02:50:43.723Z,9.279864
2022-11-29T02:52:20.871Z,9.279848
2022-11-29T02:52:43.688Z,9.279878
2022-11-29T02:53:43.671Z,9.279888
2022-11-29T02:54:44.033Z,9.279968
2022-11-29T02:55:43.636Z,9.279948
2022-11-29T02:56:43.650Z,9.280004
2022-11-29T02:57:43.635Z,9.279953
2022-11-29T02:59:24.465Z,9.279867
2022-11-29T02:59:43.570Z,9.279852
2022-11-29T03:00:43.552Z,9.279921
2022-11-29T03:01:43.574Z,9.279811
2022-11-29T03:02:43.558Z,9.279731
2022-11-29T03:03:43.509Z,9.279842
2022-11-29T03:04:43.935Z,9.279778
2022-11-29T03:05:43.472Z,9.279816
2022-11-29T03:06:43.473Z,9.279839
2022-11-29T03:07:43.465Z,9.279838
2022-11-29T03:08:43.412Z,9.279906
2022-11-29T03:09:43.397Z,9.279881
2022-11-29T03:10:43.380Z,9.279819
2022-11-29T03:11:43.395Z,9.279803
2022-11-29T03:12:43.347Z,9.279818
2022-11-29T03:13:43.331Z,9.280015
2022-11-29T03:14:43.651Z,9.279791
2022-11-29T03:15:43.311Z,9.279899
2022-11-29T03:16:43.752Z,9.279905
2022-11-29T03:17:44.254Z,9.279797
2022-11-29T03:18:43.256Z,9.279839
2022-11-29T03:19:43.215Z,9.279868
2022-11-29T03:20:43.201Z,9.279779
2022-11-29T03:21:43.206Z,9.279813
2022-11-29T03:22:43.163Z,9.279850
2022-11-29T03:23:43.143Z,9.279898
2022-11-29T03:24:43.452Z,9.279834
2022-11-29T03:25:43.107Z,9.279898
2022-11-29T03:26:43.125Z,9.279941
2022-11-29T03:27:43.071Z,9.280037
2022-11-29T03:28:43.054Z,9.279914
2022-11-29T03:29:43.039Z,9.279668
2022-11-29T03:30:43.035Z,9.279844
2022-11-29T03:31:43.000Z,9.279943
2022-11-29T03:32:43.006Z,9.279920
2022-11-29T03:33:42.961Z,9.279917
2022-11-29T03:34:43.432Z,9.279950
2022-11-29T03:35:42.924Z,9.279945
2022-11-29T03:36:42.929Z,9.279970
2022-11-29T03:37:42.892Z,9.280025
2022-11-29T03:38:42.864Z,9.279778
2022-11-29T03:39:42.853Z,9.279840
2022-11-29T03:40:42.834Z,9.279800
2022-11-29T03:41:42.848Z,9.279959
2022-11-29T03:42:42.825Z,9.279998
2022-11-29T03:43:42.784Z,9.279937
2022-11-29T03:44:42.927Z,9.279754
2022-11-29T03:45:42.749Z,9.279885
2022-11-29T03:46:42.804Z,9.279855
2022-11-29T03:47:42.713Z,9.279899
2022-11-29T03:48:42.700Z,9.279833
2022-11-29T03:49:42.677Z,9.279933
2022-11-29T03:50:42.664Z,9.279824
2022-11-29T03:51:42.638Z,9.279887
2022-11-29T03:52:42.645Z,9.279904
2022-11-29T03:53:42.602Z,9.279862
2022-11-29T03:54:42.975Z,9.279729
2022-11-29T03:55:42.572Z,9.279830
2022-11-29T03:56:42.574Z,9.279781
2022-11-29T03:57:42.530Z,9.279756
2022-11-29T03:58:42.517Z,9.280004
2022-11-29T03:59:42.500Z,9.279840
2022-11-29T04:01:19.637Z,9.279892
2022-11-29T04:01:42.543Z,9.279875
2022-11-29T04:02:42.518Z,9.279914
2022-11-29T04:03:42.434Z,9.279856
2022-11-29T04:04:42.711Z,9.279857
2022-11-29T04:05:43.393Z,9.279842
2022-11-29T04:06:42.411Z,9.279935
2022-11-29T04:07:42.417Z,9.279881
2022-11-29T04:08:42.335Z,9.279848
2022-11-29T04:09:42.317Z,9.279832
2022-11-29T04:10:42.301Z,9.279861
2022-11-29T04:11:42.284Z,9.279938
2022-11-29T04:12:42.303Z,9.279887
2022-11-29T04:13:42.246Z,9.279904
2022-11-29T04:14:42.479Z,9.279823
2022-11-29T04:15:42.232Z,9.279887
2022-11-29T04:16:42.224Z,9.279859
2022-11-29T04:17:42.175Z,9.279904
2022-11-29T04:18:42.166Z,9.279942
2022-11-29T04:19:42.164Z,9.279943
2022-11-29T04:20:47.831Z,9.279918
2022-11-29T04:21:44.134Z,9.279962
2022-11-29T04:22:42.089Z,9.279943
2022-11-29T04:24:19.186Z,9.279878
2022-11-29T04:24:42.238Z,9.279917
2022-11-29T04:25:42.042Z,9.279928
2022-11-29T04:26:42.022Z,9.279868
2022-11-29T04:28:19.135Z,9.279846
2022-11-29T04:28:41.994Z,9.279944
2022-11-29T04:29:41.974Z,9.279957
2022-11-29T04:31:21.905Z,9.279964
2022-11-29T04:31:41.947Z,9.280003
2022-11-29T04:32:41.945Z,9.279993
2022-11-29T04:33:41.903Z,9.279887
2022-11-29T04:34:42.324Z,9.279883
2022-11-29T04:35:41.875Z,9.279841
2022-11-29T04:36:41.856Z,9.279945
2022-11-29T04:37:41.859Z,9.279840
2022-11-29T04:39:18.901Z,9.279762
2022-11-29T04:39:41.803Z,9.279852
2022-11-29T04:40:41.788Z,9.279777
2022-11-29T04:42:18.898Z,9.279905
2022-11-29T04:42:41.756Z,9.279998
2022-11-29T04:43:41.733Z,9.280127
2022-11-29T04:44:41.839Z,9.279975
2022-11-29T04:45:41.699Z,9.280021
2022-11-29T04:47:18.769Z,9.279984
2022-11-29T04:47:41.669Z,9.279930
2022-11-29T04:48:41.650Z,9.279890
2022-11-29T04:49:41.635Z,9.279937
2022-11-29T04:50:41.629Z,9.279985
2022-11-29T04:52:21.544Z,9.279938
2022-11-29T04:52:41.587Z,9.279907
2022-11-29T04:53:41.566Z,9.279962
2022-11-29T04:54:41.564Z,9.279962
2022-11-29T04:55:41.528Z,9.279999
2022-11-29T04:56:42.517Z,9.280005
2022-11-29T04:57:41.523Z,9.280002
2022-11-29T04:58:41.480Z,9.279943
2022-11-29T05:00:18.547Z,9.279939
2022-11-29T05:01:18.592Z,9.279858
2022-11-29T05:01:41.452Z,9.279843
2022-11-29T05:03:22.326Z,9.280000
2022-11-29T05:03:41.408Z,9.279947
2022-11-29T05:04:41.471Z,9.279872
2022-11-29T05:05:41.376Z,9.279876
2022-11-29T05:06:41.361Z,9.279890
2022-11-29T05:07:41.442Z,9.279902
2022-11-29T05:08:41.356Z,9.279940
2022-11-29T05:09:41.305Z,9.279984
2022-11-29T05:10:41.284Z,9.279871
2022-11-29T05:11:41.269Z,9.279893
2022-11-29T05:12:41.269Z,9.279850
2022-11-29T05:13:41.242Z,9.279801
2022-11-29T05:14:41.258Z,9.279825
2022-11-29T05:15:41.305Z,9.279888
2022-11-29T05:16:41.181Z,9.279933
2022-11-29T05:17:41.186Z,9.279943
2022-11-29T05:18:41.145Z,9.279889
2022-11-29T05:19:41.139Z,9.279960
2022-11-29T05:20:41.111Z,9.279948
2022-11-29T05:21:41.088Z,9.279937
2022-11-29T05:22:41.097Z,9.279918
2022-11-29T05:23:41.055Z,9.279907
2022-11-29T05:24:41.045Z,9.279989
2022-11-29T05:25:41.035Z,9.279920
2022-11-29T05:26:41.015Z,9.279984
2022-11-29T05:27:41.011Z,9.279911
2022-11-29T05:28:40.962Z,9.279866
2022-11-29T05:29:40.951Z,9.279719
2022-11-29T05:30:40.932Z,9.279914
2022-11-29T05:31:40.914Z,9.279906
2022-11-29T05:32:40.927Z,9.279967
2022-11-29T05:33:40.883Z,9.280031
2022-11-29T05:34:40.867Z,9.280016
2022-11-29T05:35:40.845Z,9.279904
2022-11-29T05:36:40.840Z,9.279854
2022-11-29T05:37:40.855Z,9.279934
2022-11-29T05:38:40.794Z,9.279806
2022-11-29T05:39:40.773Z,9.279922
2022-11-29T05:40:40.757Z,9.279878
2022-11-29T05:41:40.740Z,9.279881
2022-11-29T05:42:40.749Z,9.279908
2022-11-29T05:43:40.709Z,9.279903
2022-11-29T05:44:40.697Z,9.279972
2022-11-29T05:45:40.670Z,9.279949
2022-11-29T05:47:17.737Z,9.279911
2022-11-29T05:47:40.666Z,9.279860
2022-11-29T05:48:40.625Z,9.279914
2022-11-29T05:49:40.603Z,9.279950
2022-11-29T05:50:40.584Z,9.279926
2022-11-29T05:51:40.571Z,9.279945
2022-11-29T05:52:40.573Z,9.279906
2022-11-29T05:53:40.531Z,9.279812
2022-11-29T05:54:40.526Z,9.279873
2022-11-29T05:55:40.506Z,9.279943
2022-11-29T05:56:40.470Z,9.280028
2022-11-29T05:57:40.494Z,9.280055
2022-11-29T05:58:40.444Z,9.279956
2022-11-29T05:59:40.429Z,9.279846
2022-11-29T06:00:40.420Z,9.279786
2022-11-29T06:01:40.427Z,9.279894
2022-11-29T06:02:40.456Z,9.279902
2022-11-29T06:03:40.360Z,9.279952
2022-11-29T06:04:40.335Z,9.279865
2022-11-29T06:05:40.322Z,9.279809
2022-11-29T06:06:40.307Z,9.279752
2022-11-29T06:07:40.343Z,9.279683
2022-11-29T06:08:40.263Z,9.279695
2022-11-29T06:09:40.248Z,9.279721
2022-11-29T06:10:40.242Z,9.279797
2022-11-29T06:11:40.211Z,9.279904
2022-11-29T06:12:40.221Z,9.279850
2022-11-29T06:13:40.189Z,9.279756
2022-11-29T06:14:40.161Z,9.279832
2022-11-29T06:15:40.144Z,9.279731
2022-11-29T06:16:40.127Z,9.279817
2022-11-29T06:17:40.138Z,9.279853
2022-11-29T06:18:40.091Z,9.279708
2022-11-29T06:19:40.076Z,9.279605
2022-11-29T06:20:40.051Z,9.279746
2022-11-29T06:21:40.040Z,9.279849
2022-11-29T06:22:40.049Z,9.279839
2022-11-29T06:23:40.007Z,9.279848
2022-11-29T06:24:40.079Z,9.279938
2022-11-29T06:25:39.970Z,9.279952
2022-11-29T06:26:39.950Z,9.279893
2022-11-29T06:27:39.930Z,9.279919
2022-11-29T06:28:39.942Z,9.279829
2022-11-29T06:29:39.897Z,9.279732
2022-11-29T06:30:39.882Z,9.279622
2022-11-29T06:31:39.909Z,9.279727
2022-11-29T06:32:39.843Z,9.279764
2022-11-29T06:33:39.851Z,9.279958
2022-11-29T06:34:39.807Z,9.279909
2022-11-29T06:35:39.792Z,9.280004
2022-11-29T06:36:39.772Z,9.279980
2022-11-29T06:37:39.754Z,9.279923
2022-11-29T06:38:39.761Z,9.280068
2022-11-29T06:39:39.739Z,9.280050
2022-11-29T06:40:39.708Z,9.279945
2022-11-29T06:41:39.694Z,9.280008
2022-11-29T06:42:39.666Z,9.279906
2022-11-29T06:43:39.677Z,9.279926
2022-11-29T06:44:39.628Z,9.279944
2022-11-29T06:45:39.612Z,9.279886
2022-11-29T06:46:39.640Z,9.279982
2022-11-29T06:47:39.579Z,9.279959
2022-11-29T06:48:39.592Z,9.279927
2022-11-29T06:49:39.543Z,9.280051
2022-11-29T06:50:39.528Z,9.280033
2022-11-29T06:51:39.509Z,9.279860
2022-11-29T06:52:39.493Z,9.279951
2022-11-29T06:53:39.503Z,9.279927
2022-11-29T06:54:39.468Z,9.280014
2022-11-29T06:55:39.440Z,9.280092
2022-11-29T06:56:40.897Z,9.280128
2022-11-29T06:57:40.403Z,9.280012
2022-11-29T06:58:39.410Z,9.280060
2022-11-29T06:59:39.378Z,9.280025
2022-11-29T07:00:39.396Z,9.279950
2022-11-29T07:01:39.365Z,9.279987
2022-11-29T07:02:39.327Z,9.280129
2022-11-29T07:03:39.329Z,9.280040
2022-11-29T07:04:45.468Z,9.279993
2022-11-29T07:05:41.266Z,9.280021
2022-11-29T07:06:39.261Z,9.280035
2022-11-29T07:07:39.301Z,9.280081
2022-11-29T07:08:39.245Z,9.279936
2022-11-29T07:09:39.203Z,9.280069
2022-11-29T07:10:39.179Z,9.279872
2022-11-29T07:11:39.171Z,9.279887
2022-11-29T07:12:39.150Z,9.279880
2022-11-29T07:13:39.152Z,9.279966
2022-11-29T07:14:39.115Z,9.279970
2022-11-29T07:15:39.110Z,9.279990
2022-11-29T07:16:39.132Z,9.279991
2022-11-29T07:17:40.060Z,9.279977
2022-11-29T07:18:39.069Z,9.280006
2022-11-29T07:19:39.025Z,9.280128
2022-11-29T07:20:39.024Z,9.280079
2022-11-29T07:21:38.987Z,9.279938
2022-11-29T07:22:38.973Z,9.280332
2022-11-29T07:23:38.983Z,9.280180
2022-11-29T07:24:38.954Z,9.280124
2022-11-29T07:25:38.939Z,9.280042
2022-11-29T07:26:38.907Z,9.279765
2022-11-29T07:27:38.892Z,9.279654
2022-11-29T07:28:38.895Z,9.279659
2022-11-29T07:29:38.859Z,9.280011
2022-11-29T07:30:38.837Z,9.280044
2022-11-29T07:31:38.852Z,9.280094
2022-11-29T07:32:38.801Z,9.279976
2022-11-29T07:33:38.812Z,9.279987
2022-11-29T07:34:38.791Z,9.280056
2022-11-29T07:35:38.745Z,9.280060
2022-11-29T07:36:38.732Z,9.280126
2022-11-29T07:37:38.712Z,9.279984
2022-11-29T07:38:39.692Z,9.279883
2022-11-29T07:39:38.709Z,9.279963
2022-11-29T07:40:38.665Z,9.279925
2022-11-29T07:41:38.645Z,9.280085
2022-11-29T07:42:38.633Z,9.279968
2022-11-29T07:43:38.650Z,9.279852
2022-11-29T07:44:38.600Z,9.279810
2022-11-29T07:45:38.584Z,9.279990
2022-11-29T07:46:38.591Z,9.279991
2022-11-29T07:47:38.542Z,9.279997
2022-11-29T07:48:38.553Z,9.279986
2022-11-29T07:49:38.517Z,9.280019
2022-11-29T07:50:38.492Z,9.279989
2022-11-29T07:51:38.477Z,9.280091
2022-11-29T07:52:38.458Z,9.279984
2022-11-29T07:53:38.474Z,9.279954
2022-11-29T07:54:38.425Z,9.280038
2022-11-29T07:55:38.411Z,9.279884
2022-11-29T07:56:38.389Z,9.279918
2022-11-29T07:57:38.375Z,9.280034
2022-11-29T07:58:38.401Z,9.280008
2022-11-29T07:59:38.337Z,9.279984
2022-11-29T08:00:38.361Z,9.280025
2022-11-29T08:01:38.356Z,9.280038
2022-11-29T08:02:38.356Z,9.279985
2022-11-29T08:03:38.293Z,9.279960
2022-11-29T08:04:38.249Z,9.279972
2022-11-29T08:05:38.235Z,9.279893
2022-11-29T08:06:38.215Z,9.279935
2022-11-29T08:07:38.256Z,9.279952
2022-11-29T08:08:43.741Z,9.279982
2022-11-29T08:09:40.166Z,9.279946
2022-11-29T08:10:38.149Z,9.279938
2022-11-29T08:11:38.136Z,9.279963
2022-11-29T08:12:38.119Z,9.279956
2022-11-29T08:13:38.128Z,9.279822
2022-11-29T08:14:38.084Z,9.279886
2022-11-29T08:15:38.076Z,9.279840
2022-11-29T08:16:38.144Z,9.279873
2022-11-29T08:17:38.042Z,9.279871
2022-11-29T08:18:38.042Z,9.279896
2022-11-29T08:19:37.992Z,9.279957
2022-11-29T08:20:38.028Z,9.279931
2022-11-29T08:21:37.970Z,9.279936
2022-11-29T08:22:37.939Z,9.279935
2022-11-29T08:23:37.956Z,9.279911
2022-11-29T08:24:37.908Z,9.279884
2022-11-29T08:25:37.891Z,9.279884
2022-11-29T08:26:37.873Z,9.279860
2022-11-29T08:27:37.852Z,9.279890
2022-11-29T08:28:37.866Z,9.279973
2022-11-29T08:29:37.822Z,9.279967
2022-11-29T08:30:37.809Z,9.279970
2022-11-29T08:31:37.839Z,9.279914
2022-11-29T08:32:37.769Z,9.279882
2022-11-29T08:33:37.774Z,9.279826
2022-11-29T08:34:37.728Z,9.279903
2022-11-29T08:35:37.720Z,9.279938
2022-11-29T08:36:37.695Z,9.279945
2022-11-29T08:37:37.682Z,9.279866
2022-11-29T08:38:37.685Z,9.279940
2022-11-29T08:39:37.646Z,9.279914
2022-11-29T08:40:37.623Z,9.279879
2022-11-29T08:41:37.609Z,9.279878
2022-11-29T08:42:37.590Z,9.279888
2022-11-29T08:43:37.598Z,9.279893
2022-11-29T08:44:37.552Z,9.279855
2022-11-29T08:45:37.613Z,9.279930
2022-11-29T08:46:37.514Z,9.279950
2022-11-29T08:47:37.502Z,9.279866
2022-11-29T08:48:37.488Z,9.279761
2022-11-29T08:49:37.467Z,9.279801
2022-11-29T08:50:37.476Z,9.279772
2022-11-29T08:51:37.429Z,9.279722
2022-11-29T08:52:37.414Z,9.279722
2022-11-29T08:53:37.428Z,9.279852
2022-11-29T08:54:37.379Z,9.279881
2022-11-29T08:55:37.363Z,9.279877
2022-11-29T08:57:40.735Z,9.279888
2022-11-29T08:58:38.343Z,9.279952
2022-11-29T08:59:37.301Z,9.279939
2022-11-29T09:00:37.284Z,9.279886
2022-11-29T09:01:37.315Z,9.279912
2022-11-29T09:02:37.319Z,9.279912
2022-11-29T09:03:37.255Z,9.279927
2022-11-29T09:04:37.214Z,9.279823
2022-11-29T09:05:37.228Z,9.279865
2022-11-29T09:06:37.176Z,9.279814
2022-11-29T09:07:37.224Z,9.279838
2022-11-29T09:08:37.186Z,9.279889
2022-11-29T09:09:37.137Z,9.279911
2022-11-29T09:10:37.114Z,9.279916
2022-11-29T09:11:37.109Z,9.279918
2022-11-29T09:12:37.081Z,9.279871
2022-11-29T09:13:37.090Z,9.279932
2022-11-29T09:14:37.046Z,9.279929
2022-11-29T09:15:37.059Z,9.279950
2022-11-29T09:16:37.060Z,9.279927
2022-11-29T09:17:36.995Z,9.279893
2022-11-29T09:18:37.009Z,9.279947
2022-11-29T09:19:36.967Z,9.279957
2022-11-29T09:20:36.951Z,9.279986
2022-11-29T09:21:36.936Z,9.279936
2022-11-29T09:22:36.910Z,9.279906
2022-11-29T09:23:36.897Z,9.279901
2022-11-29T09:24:36.908Z,9.279966
2022-11-29T09:25:36.865Z,9.279993
2022-11-29T09:26:36.856Z,9.279872
2022-11-29T09:27:36.839Z,9.279963
2022-11-29T09:28:36.813Z,9.279928
2022-11-29T09:29:36.835Z,9.279948
2022-11-29T09:30:36.803Z,9.279928
2022-11-29T09:31:36.813Z,9.279957
2022-11-29T09:32:36.747Z,9.279955
2022-11-29T09:33:36.727Z,9.279936
2022-11-29T09:34:36.740Z,9.279910
2022-11-29T09:35:36.691Z,9.280017
2022-11-29T09:36:36.694Z,9.279982
2022-11-29T09:37:36.658Z,9.279914
2022-11-29T09:38:36.639Z,9.280069
2022-11-29T09:39:36.654Z,9.280119
2022-11-29T09:40:36.612Z,9.279904
2022-11-29T09:41:36.797Z,9.279932
2022-11-29T09:42:36.574Z,9.279951
2022-11-29T09:43:36.559Z,9.280091
2022-11-29T09:44:36.633Z,9.280114
2022-11-29T09:45:36.562Z,9.279946
2022-11-29T09:46:36.505Z,9.280084
2022-11-29T09:47:36.487Z,9.279921
2022-11-29T09:48:36.471Z,9.279906
2022-11-29T09:49:36.480Z,9.279857
2022-11-29T09:50:36.437Z,9.280025
2022-11-29T09:51:41.143Z,9.280041
2022-11-29T09:52:38.403Z,9.280014
2022-11-29T09:53:36.390Z,9.279983
2022-11-29T09:54:36.390Z,9.279959
2022-11-29T09:55:36.350Z,9.279857
2022-11-29T09:56:36.352Z,9.279866
2022-11-29T09:57:36.315Z,9.279998
2022-11-29T09:58:36.297Z,9.279958
2022-11-29T09:59:36.306Z,9.280041
2022-11-29T10:00:36.267Z,9.280030
2022-11-29T10:01:36.296Z,9.280040
2022-11-29T10:02:36.339Z,9.279966
2022-11-29T10:03:36.212Z,9.279923
2022-11-29T10:04:36.243Z,9.279920
2022-11-29T10:05:36.172Z,9.279925
2022-11-29T10:06:36.179Z,9.279924
2022-11-29T10:07:36.190Z,9.279795
2022-11-29T10:08:36.127Z,9.279846
2022-11-29T10:09:36.140Z,9.279906
2022-11-29T10:10:36.087Z,9.279991
2022-11-29T10:11:36.096Z,9.280044
2022-11-29T10:12:36.059Z,9.279894
2022-11-29T10:13:36.036Z,9.279907
2022-11-29T10:14:36.047Z,9.280011
2022-11-29T10:15:36.003Z,9.279892
2022-11-29T10:16:36.016Z,9.279880
2022-11-29T10:17:35.968Z,9.279907
2022-11-29T10:18:35.957Z,9.280049
2022-11-29T10:19:35.959Z,9.279962
2022-11-29T10:20:39.835Z,9.279934
2022-11-29T10:21:37.902Z,9.279904
2022-11-29T10:22:35.883Z,9.279883
2022-11-29T10:23:35.868Z,9.279859
2022-11-29T10:24:35.878Z,9.279803
2022-11-29T10:25:35.831Z,9.279802
2022-11-29T10:26:35.815Z,9.279960
2022-11-29T10:27:35.802Z,9.279942
2022-11-29T10:28:36.776Z,9.279881
2022-11-29T10:29:35.787Z,9.279887
2022-11-29T10:30:35.786Z,9.279903
2022-11-29T10:31:35.728Z,9.279824
2022-11-29T10:32:35.711Z,9.279889
2022-11-29T10:33:35.696Z,9.279943
2022-11-29T10:34:35.699Z,9.279935
2022-11-29T10:35:35.655Z,9.279967
2022-11-29T10:36:35.666Z,9.279959
2022-11-29T10:37:35.611Z,9.279927
2022-11-29T10:38:35.599Z,9.279889
2022-11-29T10:39:35.607Z,9.279988
2022-11-29T10:40:35.568Z,9.279992
2022-11-29T10:41:35.544Z,9.279992
2022-11-29T10:42:35.533Z,9.279963
2022-11-29T10:43:35.512Z,9.280005
2022-11-29T10:44:35.524Z,9.280073
2022-11-29T10:45:35.488Z,9.280125
2022-11-29T10:46:35.473Z,9.279994
2022-11-29T10:47:35.458Z,9.279959
2022-11-29T10:48:35.431Z,9.280066
2022-11-29T10:49:35.440Z,9.280091
2022-11-29T10:50:35.392Z,9.280024
2022-11-29T10:51:35.375Z,9.280044
2022-11-29T10:52:35.365Z,9.280076
2022-11-29T10:53:35.348Z,9.280046
2022-11-29T10:54:35.354Z,9.280033
2022-11-29T10:55:35.309Z,9.279999
2022-11-29T10:56:35.293Z,9.279996
2022-11-29T10:57:35.275Z,9.279951
2022-11-29T10:58:35.260Z,9.279887
2022-11-29T10:59:35.271Z,9.279997
2022-11-29T11:00:35.225Z,9.279841
2022-11-29T11:01:35.227Z,9.279683
2022-11-29T11:02:36.187Z,9.279846
2022-11-29T11:03:35.173Z,9.279980
2022-11-29T11:04:35.184Z,9.280058
2022-11-29T11:05:35.164Z,9.280134
2022-11-29T11:06:35.119Z,9.280062
2022-11-29T11:07:35.238Z,9.279897
2022-11-29T11:08:35.086Z,9.279984
2022-11-29T11:09:35.097Z,9.280006
2022-11-29T11:10:35.057Z,9.280089
2022-11-29T11:11:35.044Z,9.279984
2022-11-29T11:12:35.038Z,9.280037
2022-11-29T11:13:34.999Z,9.280035
2022-11-29T11:14:35.043Z,9.279994
2022-11-29T11:15:35.058Z,9.279999
2022-11-29T11:16:37.611Z,9.279913
2022-11-29T11:17:35.955Z,9.280019
2022-11-29T11:18:34.935Z,9.280124
2022-11-29T11:19:34.937Z,9.280025
2022-11-29T11:20:34.882Z,9.279985
2022-11-29T11:21:34.863Z,9.279953
2022-11-29T11:22:34.848Z,9.279903
2022-11-29T11:23:37.512Z,9.279939
2022-11-29T11:24:36.835Z,9.279958
2022-11-29T11:25:34.792Z,9.279913
2022-11-29T11:26:34.774Z,9.279942
2022-11-29T11:27:34.759Z,9.279977
2022-11-29T11:28:34.745Z,9.279925
2022-11-29T11:29:34.750Z,9.279953
2022-11-29T11:30:34.756Z,9.280004
2022-11-29T11:31:34.691Z,9.279993
2022-11-29T11:32:34.678Z,9.279921
2022-11-29T11:33:34.650Z,9.279912
2022-11-29T11:34:34.666Z,9.279931
2022-11-29T11:35:34.626Z,9.279812
2022-11-29T11:36:34.610Z,9.279890
2022-11-29T11:37:34.584Z,9.279911
2022-11-29T11:38:34.569Z,9.279932
2022-11-29T11:39:34.577Z,9.279877
2022-11-29T11:40:34.607Z,9.279879
2022-11-29T11:41:34.519Z,9.279865
2022-11-29T11:42:34.503Z,9.279851
2022-11-29T11:43:34.484Z,9.279812
2022-11-29T11:44:49.972Z,9.279923
2022-11-29T11:45:36.455Z,9.279957